sensor_id;sensor_type;location;lat;lon;timestamp;pressure;altitude;pressure_sealevel;temperature;humidity
49825;BME280;35714;55.708;37.478;2023-03-14T00:01:56;99072.19;;;-1.35;53.12
49825;BME280;35714;55.708;37.478;2023-03-14T00:04:22;99080.66;;;-1.31;53.36
49825;BME280;35714;55.708;37.478;2023-03-14T00:06:48;99050.75;;;-1.33;53.39
49825;BME280;35714;55.708;37.478;2023-03-14T00:09:15;99045.09;;;-1.30;52.97
49825;BME280;35714;55.708;37.478;2023-03-14T00:11:41;99040.09;;;-1.17;52.70
49825;BME280;35714;55.708;37.478;2023-03-14T00:14:07;99039.09;;;-1.16;53.33
49825;BME280;35714;55.708;37.478;2023-03-14T00:16:33;99020.81;;;-1.19;52.95
49825;BME280;35714;55.708;37.478;2023-03-14T00:18:59;99028.44;;;-1.07;53.15
49825;BME280;35714;55.708;37.478;2023-03-14T00:21:25;99010.28;;;-0.96;53.04
49825;BME280;35714;55.708;37.478;2023-03-14T00:23:51;99011.44;;;-0.98;53.39
49825;BME280;35714;55.708;37.478;2023-03-14T00:26:18;99028.06;;;-0.88;53.37
49825;BME280;35714;55.708;37.478;2023-03-14T00:28:45;98993.28;;;-0.86;53.35
49825;BME280;35714;55.708;37.478;2023-03-14T00:31:13;98991.63;;;-0.87;53.16
49825;BME280;35714;55.708;37.478;2023-03-14T00:33:40;98988.81;;;-0.94;53.85
49825;BME280;35714;55.708;37.478;2023-03-14T00:36:09;98991.66;;;-0.96;54.27
49825;BME280;35714;55.708;37.478;2023-03-14T00:38:37;98989.63;;;-0.85;54.53
49825;BME280;35714;55.708;37.478;2023-03-14T00:41:09;98991.59;;;-0.79;54.71
49825;BME280;35714;55.708;37.478;2023-03-14T00:43:35;98989.91;;;-0.80;55.44
49825;BME280;35714;55.708;37.478;2023-03-14T00:46:01;98987.47;;;-0.90;55.85
49825;BME280;35714;55.708;37.478;2023-03-14T00:48:28;98978.84;;;-0.92;56.36
49825;BME280;35714;55.708;37.478;2023-03-14T00:50:54;98986.78;;;-0.84;57.26
49825;BME280;35714;55.708;37.478;2023-03-14T00:53:19;98986.47;;;-0.89;57.47
49825;BME280;35714;55.708;37.478;2023-03-14T00:55:45;98981.31;;;-0.91;57.65
49825;BME280;35714;55.708;37.478;2023-03-14T00:58:12;98983.69;;;-0.96;58.84
49825;BME280;35714;55.708;37.478;2023-03-14T01:00:39;98949.84;;;-0.87;58.98
49825;BME280;35714;55.708;37.478;2023-03-14T01:03:06;98963.00;;;-0.85;59.36
49825;BME280;35714;55.708;37.478;2023-03-14T01:05:32;98965.69;;;-0.94;59.74
49825;BME280;35714;55.708;37.478;2023-03-14T01:07:57;98967.38;;;-0.93;60.22
49825;BME280;35714;55.708;37.478;2023-03-14T01:10:23;98977.50;;;-0.96;60.35
49825;BME280;35714;55.708;37.478;2023-03-14T01:12:49;98957.88;;;-0.95;60.66
49825;BME280;35714;55.708;37.478;2023-03-14T01:15:15;98982.81;;;-0.96;61.14
49825;BME280;35714;55.708;37.478;2023-03-14T01:17:41;98966.19;;;-0.90;61.12
49825;BME280;35714;55.708;37.478;2023-03-14T01:20:09;98958.53;;;-0.93;61.79
49825;BME280;35714;55.708;37.478;2023-03-14T01:22:36;98949.94;;;-1.03;62.33
49825;BME280;35714;55.708;37.478;2023-03-14T01:25:02;98939.28;;;-1.03;62.74
49825;BME280;35714;55.708;37.478;2023-03-14T01:27:29;98921.31;;;-1.01;62.96
49825;BME280;35714;55.708;37.478;2023-03-14T01:29:54;98907.06;;;-1.17;63.59
49825;BME280;35714;55.708;37.478;2023-03-14T01:32:20;98916.06;;;-1.18;63.85
49825;BME280;35714;55.708;37.478;2023-03-14T01:34:46;98908.75;;;-1.16;64.12
49825;BME280;35714;55.708;37.478;2023-03-14T01:37:11;98910.06;;;-1.12;64.17
49825;BME280;35714;55.708;37.478;2023-03-14T01:39:38;98912.75;;;-1.20;64.82
49825;BME280;35714;55.708;37.478;2023-03-14T01:42:04;98901.13;;;-1.27;64.80
49825;BME280;35714;55.708;37.478;2023-03-14T01:47:13;98869.84;;;-1.17;65.08
49825;BME280;35714;55.708;37.478;2023-03-14T01:49:39;98873.19;;;-1.23;65.73
49825;BME280;35714;55.708;37.478;2023-03-14T01:52:16;98868.19;;;-1.18;66.05
49825;BME280;35714;55.708;37.478;2023-03-14T01:54:49;98872.19;;;-1.22;66.13
49825;BME280;35714;55.708;37.478;2023-03-14T01:57:20;98875.84;;;-1.23;66.46
49825;BME280;35714;55.708;37.478;2023-03-14T01:59:55;98861.47;;;-1.05;66.39
49825;BME280;35714;55.708;37.478;2023-03-14T02:02:24;98843.84;;;-1.06;66.41
49825;BME280;35714;55.708;37.478;2023-03-14T02:04:53;98844.91;;;-1.16;66.84
49825;BME280;35714;55.708;37.478;2023-03-14T02:07:27;98847.56;;;-1.16;66.91
49825;BME280;35714;55.708;37.478;2023-03-14T02:10:06;98854.00;;;-1.10;66.97
49825;BME280;35714;55.708;37.478;2023-03-14T02:12:34;98842.03;;;-1.06;67.31
49825;BME280;35714;55.708;37.478;2023-03-14T02:15:23;98831.25;;;-1.13;67.50
49825;BME280;35714;55.708;37.478;2023-03-14T02:18:18;98839.53;;;-1.07;67.71
49825;BME280;35714;55.708;37.478;2023-03-14T02:21:41;98819.47;;;-1.18;68.44
49825;BME280;35714;55.708;37.478;2023-03-14T02:24:27;98830.38;;;-1.05;68.39
49825;BME280;35714;55.708;37.478;2023-03-14T02:27:16;98807.13;;;-1.11;68.59
49825;BME280;35714;55.708;37.478;2023-03-14T02:29:49;98788.69;;;-1.13;68.77
49825;BME280;35714;55.708;37.478;2023-03-14T02:32:17;98788.03;;;-1.15;69.28
49825;BME280;35714;55.708;37.478;2023-03-14T02:34:47;98799.53;;;-0.91;69.24
49825;BME280;35714;55.708;37.478;2023-03-14T02:37:15;98770.66;;;-1.02;69.63
49825;BME280;35714;55.708;37.478;2023-03-14T02:39:44;98759.31;;;-0.96;69.98
49825;BME280;35714;55.708;37.478;2023-03-14T02:42:13;98759.38;;;-1.04;70.28
49825;BME280;35714;55.708;37.478;2023-03-14T02:45:00;98771.50;;;-1.02;70.48
49825;BME280;35714;55.708;37.478;2023-03-14T02:47:46;98769.47;;;-1.00;70.77
49825;BME280;35714;55.708;37.478;2023-03-14T02:50:20;98748.19;;;-1.00;70.92
49825;BME280;35714;55.708;37.478;2023-03-14T02:52:48;98744.81;;;-0.94;70.60
49825;BME280;35714;55.708;37.478;2023-03-14T02:55:13;98750.31;;;-0.95;70.81
49825;BME280;35714;55.708;37.478;2023-03-14T02:57:42;98766.91;;;-0.85;70.50
49825;BME280;35714;55.708;37.478;2023-03-14T03:00:08;98728.44;;;-1.05;70.52
49825;BME280;35714;55.708;37.478;2023-03-14T03:02:36;98773.16;;;-0.78;70.39
49825;BME280;35714;55.708;37.478;2023-03-14T03:05:02;98764.63;;;-0.73;70.14
49825;BME280;35714;55.708;37.478;2023-03-14T03:07:28;98777.59;;;-0.70;70.18
49825;BME280;35714;55.708;37.478;2023-03-14T03:09:55;98768.47;;;-0.76;70.68
49825;BME280;35714;55.708;37.478;2023-03-14T03:12:21;98745.91;;;-0.65;70.35
49825;BME280;35714;55.708;37.478;2023-03-14T03:14:47;98743.78;;;-0.69;70.97
49825;BME280;35714;55.708;37.478;2023-03-14T03:17:14;98731.50;;;-0.70;70.75
49825;BME280;35714;55.708;37.478;2023-03-14T03:19:40;98739.34;;;-0.54;70.37
49825;BME280;35714;55.708;37.478;2023-03-14T03:22:06;98735.41;;;-0.58;70.33
49825;BME280;35714;55.708;37.478;2023-03-14T03:24:32;98718.75;;;-0.60;70.78
49825;BME280;35714;55.708;37.478;2023-03-14T03:26:58;98717.75;;;-0.59;70.71
49825;BME280;35714;55.708;37.478;2023-03-14T03:29:24;98704.81;;;-0.47;70.72
49825;BME280;35714;55.708;37.478;2023-03-14T03:31:50;98705.31;;;-0.44;70.56
49825;BME280;35714;55.708;37.478;2023-03-14T03:34:17;98688.38;;;-0.51;70.52
49825;BME280;35714;55.708;37.478;2023-03-14T03:36:44;98690.97;;;-0.43;70.50
49825;BME280;35714;55.708;37.478;2023-03-14T03:39:11;98690.22;;;-0.37;70.53
49825;BME280;35714;55.708;37.478;2023-03-14T03:41:36;98706.41;;;-0.38;70.77
49825;BME280;35714;55.708;37.478;2023-03-14T03:44:02;98692.84;;;-0.28;70.69
49825;BME280;35714;55.708;37.478;2023-03-14T03:46:28;98689.03;;;-0.19;70.51
49825;BME280;35714;55.708;37.478;2023-03-14T03:48:58;98662.78;;;-0.22;70.41
49825;BME280;35714;55.708;37.478;2023-03-14T03:51:26;98683.53;;;-0.17;70.69
49825;BME280;35714;55.708;37.478;2023-03-14T03:53:52;98683.28;;;-0.08;70.52
49825;BME280;35714;55.708;37.478;2023-03-14T03:56:25;98691.63;;;0.04;70.30
49825;BME280;35714;55.708;37.478;2023-03-14T03:58:50;98671.13;;;0.05;70.34
49825;BME280;35714;55.708;37.478;2023-03-14T04:01:16;98673.69;;;-0.02;70.32
49825;BME280;35714;55.708;37.478;2023-03-14T04:03:45;98671.47;;;0.02;70.90
49825;BME280;35714;55.708;37.478;2023-03-14T04:06:13;98674.88;;;0.10;70.64
49825;BME280;35714;55.708;37.478;2023-03-14T04:08:40;98677.63;;;0.17;70.41
49825;BME280;35714;55.708;37.478;2023-03-14T04:11:09;98664.97;;;0.19;70.68
49825;BME280;35714;55.708;37.478;2023-03-14T04:13:55;98676.25;;;0.21;70.60
49825;BME280;35714;55.708;37.478;2023-03-14T04:16:22;98665.22;;;0.24;70.70
49825;BME280;35714;55.708;37.478;2023-03-14T04:18:51;98679.44;;;0.31;70.79
49825;BME280;35714;55.708;37.478;2023-03-14T04:21:20;98659.13;;;0.30;70.82
49825;BME280;35714;55.708;37.478;2023-03-14T04:23:53;98663.34;;;0.40;70.70
49825;BME280;35714;55.708;37.478;2023-03-14T04:26:20;98644.56;;;0.48;70.48
49825;BME280;35714;55.708;37.478;2023-03-14T04:28:46;98644.44;;;0.56;70.29
49825;BME280;35714;55.708;37.478;2023-03-14T04:31:19;98643.03;;;0.60;70.19
49825;BME280;35714;55.708;37.478;2023-03-14T04:33:45;98645.56;;;0.68;69.73
49825;BME280;35714;55.708;37.478;2023-03-14T04:36:14;98630.47;;;0.76;69.82
49825;BME280;35714;55.708;37.478;2023-03-14T04:38:39;98645.72;;;0.82;69.71
49825;BME280;35714;55.708;37.478;2023-03-14T04:41:06;98623.53;;;0.81;70.03
49825;BME280;35714;55.708;37.478;2023-03-14T04:43:34;98640.69;;;0.94;69.84
49825;BME280;35714;55.708;37.478;2023-03-14T04:46:06;98631.09;;;0.99;69.43
49825;BME280;35714;55.708;37.478;2023-03-14T04:48:32;98627.84;;;1.04;69.71
49825;BME280;35714;55.708;37.478;2023-03-14T04:50:59;98603.63;;;1.05;69.59
49825;BME280;35714;55.708;37.478;2023-03-14T04:53:29;98611.63;;;1.05;69.53
49825;BME280;35714;55.708;37.478;2023-03-14T04:55:56;98609.81;;;1.13;69.67
49825;BME280;35714;55.708;37.478;2023-03-14T04:58:25;98593.91;;;1.26;69.27
49825;BME280;35714;55.708;37.478;2023-03-14T05:00:53;98601.28;;;1.24;69.67
49825;BME280;35714;55.708;37.478;2023-03-14T05:03:44;98586.03;;;1.18;69.71
49825;BME280;35714;55.708;37.478;2023-03-14T05:06:29;98586.50;;;1.28;69.86
49825;BME280;35714;55.708;37.478;2023-03-14T05:09:12;98578.81;;;1.47;69.15
49825;BME280;35714;55.708;37.478;2023-03-14T05:11:54;98565.28;;;1.55;69.06
49825;BME280;35714;55.708;37.478;2023-03-14T05:14:42;98555.88;;;1.59;68.72
49825;BME280;35714;55.708;37.478;2023-03-14T05:17:40;98558.56;;;1.59;68.55
49825;BME280;35714;55.708;37.478;2023-03-14T05:20:24;98560.66;;;1.70;68.72
49825;BME280;35714;55.708;37.478;2023-03-14T05:23:10;98568.28;;;1.73;68.41
49825;BME280;35714;55.708;37.478;2023-03-14T05:25:54;98571.94;;;1.72;68.66
49825;BME280;35714;55.708;37.478;2023-03-14T05:28:40;98562.56;;;1.83;68.26
49825;BME280;35714;55.708;37.478;2023-03-14T05:31:20;98575.31;;;1.88;68.02
49825;BME280;35714;55.708;37.478;2023-03-14T05:34:03;98577.19;;;1.94;67.79
49825;BME280;35714;55.708;37.478;2023-03-14T05:36:38;98563.44;;;1.97;67.75
49825;BME280;35714;55.708;37.478;2023-03-14T05:39:24;98579.06;;;2.00;67.37
49825;BME280;35714;55.708;37.478;2023-03-14T05:42:15;98579.91;;;2.07;67.24
49825;BME280;35714;55.708;37.478;2023-03-14T05:45:04;98581.97;;;2.12;67.42
49825;BME280;35714;55.708;37.478;2023-03-14T05:47:46;98586.97;;;2.22;66.52
49825;BME280;35714;55.708;37.478;2023-03-14T05:50:20;98583.69;;;2.33;66.30
49825;BME280;35714;55.708;37.478;2023-03-14T05:53:04;98582.22;;;2.30;66.20
49825;BME280;35714;55.708;37.478;2023-03-14T05:55:52;98582.03;;;2.32;66.07
49825;BME280;35714;55.708;37.478;2023-03-14T05:58:32;98606.56;;;2.42;65.95
49825;BME280;35714;55.708;37.478;2023-03-14T06:01:16;98610.66;;;2.51;66.13
49825;BME280;35714;55.708;37.478;2023-03-14T06:04:01;98600.41;;;2.68;65.66
49825;BME280;35714;55.708;37.478;2023-03-14T06:06:27;98590.75;;;2.74;65.28
49825;BME280;35714;55.708;37.478;2023-03-14T06:08:53;98585.81;;;2.71;64.68
49825;BME280;35714;55.708;37.478;2023-03-14T06:11:19;98582.09;;;2.85;64.55
49825;BME280;35714;55.708;37.478;2023-03-14T06:13:46;98585.19;;;2.89;64.47
49825;BME280;35714;55.708;37.478;2023-03-14T06:16:13;98579.22;;;3.07;63.44
49825;BME280;35714;55.708;37.478;2023-03-14T06:18:40;98578.34;;;3.27;62.62
49825;BME280;35714;55.708;37.478;2023-03-14T06:21:08;98575.91;;;3.32;62.69
49825;BME280;35714;55.708;37.478;2023-03-14T06:23:34;98573.81;;;3.34;62.97
49825;BME280;35714;55.708;37.478;2023-03-14T06:26:01;98580.38;;;3.51;62.51
49825;BME280;35714;55.708;37.478;2023-03-14T06:28:28;98573.38;;;3.57;61.52
49825;BME280;35714;55.708;37.478;2023-03-14T06:30:59;98560.16;;;3.49;61.41
49825;BME280;35714;55.708;37.478;2023-03-14T06:33:25;98571.69;;;3.56;61.06
49825;BME280;35714;55.708;37.478;2023-03-14T06:35:51;98573.78;;;3.54;61.35
49825;BME280;35714;55.708;37.478;2023-03-14T06:38:17;98575.44;;;3.48;61.43
49825;BME280;35714;55.708;37.478;2023-03-14T06:40:43;98576.03;;;3.50;61.71
49825;BME280;35714;55.708;37.478;2023-03-14T06:43:16;98568.84;;;3.51;61.43
49825;BME280;35714;55.708;37.478;2023-03-14T06:45:43;98563.84;;;3.61;60.53
49825;BME280;35714;55.708;37.478;2023-03-14T06:48:09;98561.38;;;3.59;61.06
49825;BME280;35714;55.708;37.478;2023-03-14T06:50:39;98574.53;;;3.68;60.87
49825;BME280;35714;55.708;37.478;2023-03-14T06:53:05;98572.69;;;3.68;60.81
49825;BME280;35714;55.708;37.478;2023-03-14T06:55:33;98556.81;;;3.67;60.39
49825;BME280;35714;55.708;37.478;2023-03-14T06:57:58;98576.78;;;3.84;60.76
49825;BME280;35714;55.708;37.478;2023-03-14T07:00:24;98550.63;;;3.66;59.82
49825;BME280;35714;55.708;37.478;2023-03-14T07:02:54;98583.13;;;3.96;59.97
49825;BME280;35714;55.708;37.478;2023-03-14T07:05:29;98585.59;;;3.91;59.48
49825;BME280;35714;55.708;37.478;2023-03-14T07:07:56;98591.34;;;4.02;59.72
49825;BME280;35714;55.708;37.478;2023-03-14T07:10:22;98565.78;;;3.92;59.85
49825;BME280;35714;55.708;37.478;2023-03-14T07:12:49;98575.00;;;4.10;59.41
49825;BME280;35714;55.708;37.478;2023-03-14T07:15:16;98592.50;;;4.19;58.94
49825;BME280;35714;55.708;37.478;2023-03-14T07:17:42;98574.31;;;4.21;59.07
49825;BME280;35714;55.708;37.478;2023-03-14T07:20:11;98592.75;;;4.11;59.10
49825;BME280;35714;55.708;37.478;2023-03-14T07:22:37;98591.28;;;4.15;59.80
49825;BME280;35714;55.708;37.478;2023-03-14T07:25:03;98591.81;;;4.30;59.13
49825;BME280;35714;55.708;37.478;2023-03-14T07:27:38;98581.34;;;4.22;58.66
49825;BME280;35714;55.708;37.478;2023-03-14T07:30:26;98586.00;;;4.33;58.61
49825;BME280;35714;55.708;37.478;2023-03-14T07:32:59;98591.03;;;4.23;58.90
49825;BME280;35714;55.708;37.478;2023-03-14T07:35:28;98597.81;;;4.32;59.01
49825;BME280;35714;55.708;37.478;2023-03-14T07:37:53;98592.34;;;4.46;58.45
49825;BME280;35714;55.708;37.478;2023-03-14T07:40:28;98584.28;;;4.46;58.51
49825;BME280;35714;55.708;37.478;2023-03-14T07:42:53;98578.75;;;4.41;58.67
49825;BME280;35714;55.708;37.478;2023-03-14T07:45:26;98583.69;;;4.44;58.27
49825;BME280;35714;55.708;37.478;2023-03-14T07:47:52;98577.03;;;4.53;58.17
49825;BME280;35714;55.708;37.478;2023-03-14T07:50:19;98603.09;;;4.46;57.52
49825;BME280;35714;55.708;37.478;2023-03-14T07:52:45;98603.03;;;4.52;58.26
49825;BME280;35714;55.708;37.478;2023-03-14T07:55:10;98585.25;;;4.58;57.70
49825;BME280;35714;55.708;37.478;2023-03-14T07:57:38;98582.72;;;4.63;57.17
49825;BME280;35714;55.708;37.478;2023-03-14T08:00:04;98587.66;;;4.66;57.03
49825;BME280;35714;55.708;37.478;2023-03-14T08:02:39;98580.78;;;4.77;57.11
49825;BME280;35714;55.708;37.478;2023-03-14T08:05:05;98594.00;;;4.79;56.92
49825;BME280;35714;55.708;37.478;2023-03-14T08:07:30;98604.44;;;4.94;56.60
49825;BME280;35714;55.708;37.478;2023-03-14T08:09:56;98616.16;;;4.99;56.51
49825;BME280;35714;55.708;37.478;2023-03-14T08:12:21;98610.69;;;4.87;57.25
49825;BME280;35714;55.708;37.478;2023-03-14T08:14:47;98616.88;;;4.88;57.13
49825;BME280;35714;55.708;37.478;2023-03-14T08:17:13;98602.91;;;4.73;57.92
49825;BME280;35714;55.708;37.478;2023-03-14T08:19:38;98599.63;;;4.70;58.34
49825;BME280;35714;55.708;37.478;2023-03-14T08:22:06;98591.84;;;4.62;58.28
49825;BME280;35714;55.708;37.478;2023-03-14T08:24:31;98620.59;;;4.55;59.79
49825;BME280;35714;55.708;37.478;2023-03-14T08:26:57;98618.75;;;4.49;60.14
49825;BME280;35714;55.708;37.478;2023-03-14T08:29:23;98613.41;;;4.49;60.15
49825;BME280;35714;55.708;37.478;2023-03-14T08:31:48;98612.16;;;4.45;59.83
49825;BME280;35714;55.708;37.478;2023-03-14T08:34:15;98615.44;;;4.54;59.35
49825;BME280;35714;55.708;37.478;2023-03-14T08:36:41;98602.81;;;4.54;59.59
49825;BME280;35714;55.708;37.478;2023-03-14T08:39:07;98612.69;;;4.67;58.41
49825;BME280;35714;55.708;37.478;2023-03-14T08:41:34;98607.09;;;4.68;58.39
49825;BME280;35714;55.708;37.478;2023-03-14T08:44:08;98625.41;;;4.78;58.33
49825;BME280;35714;55.708;37.478;2023-03-14T08:46:35;98603.66;;;4.86;57.16
49825;BME280;35714;55.708;37.478;2023-03-14T08:49:00;98604.47;;;4.87;56.75
49825;BME280;35714;55.708;37.478;2023-03-14T08:51:27;98609.75;;;5.00;56.37
49825;BME280;35714;55.708;37.478;2023-03-14T08:53:53;98616.28;;;5.11;56.56
49825;BME280;35714;55.708;37.478;2023-03-14T08:56:18;98608.44;;;5.10;56.02
49825;BME280;35714;55.708;37.478;2023-03-14T08:58:44;98592.63;;;5.20;55.73
49825;BME280;35714;55.708;37.478;2023-03-14T09:01:10;98598.34;;;5.30;55.92
49825;BME280;35714;55.708;37.478;2023-03-14T09:03:36;98596.16;;;5.39;55.09
49825;BME280;35714;55.708;37.478;2023-03-14T09:06:08;98592.59;;;5.45;54.65
49825;BME280;35714;55.708;37.478;2023-03-14T09:08:35;98598.16;;;5.50;55.13
49825;BME280;35714;55.708;37.478;2023-03-14T09:11:01;98595.97;;;5.59;54.27
49825;BME280;35714;55.708;37.478;2023-03-14T09:13:27;98589.69;;;5.65;54.09
49825;BME280;35714;55.708;37.478;2023-03-14T09:15:54;98600.78;;;5.75;53.32
49825;BME280;35714;55.708;37.478;2023-03-14T09:18:20;98595.84;;;5.72;53.05
49825;BME280;35714;55.708;37.478;2023-03-14T09:20:45;98612.56;;;5.74;53.03
49825;BME280;35714;55.708;37.478;2023-03-14T09:23:11;98605.75;;;5.72;52.74
49825;BME280;35714;55.708;37.478;2023-03-14T09:25:37;98586.44;;;5.63;52.93
49825;BME280;35714;55.708;37.478;2023-03-14T09:28:04;98615.56;;;5.66;53.30
49825;BME280;35714;55.708;37.478;2023-03-14T09:30:29;98620.06;;;5.72;52.86
49825;BME280;35714;55.708;37.478;2023-03-14T09:32:55;98606.31;;;5.81;52.97
49825;BME280;35714;55.708;37.478;2023-03-14T09:35:22;98619.75;;;5.81;52.51
49825;BME280;35714;55.708;37.478;2023-03-14T09:37:48;98612.72;;;5.79;52.12
49825;BME280;35714;55.708;37.478;2023-03-14T09:40:16;98600.31;;;5.78;51.47
49825;BME280;35714;55.708;37.478;2023-03-14T09:42:44;98603.59;;;5.81;52.25
49825;BME280;35714;55.708;37.478;2023-03-14T09:45:28;98584.63;;;5.75;51.98
49825;BME280;35714;55.708;37.478;2023-03-14T09:47:55;98606.88;;;5.83;51.83
49825;BME280;35714;55.708;37.478;2023-03-14T09:50:23;98603.06;;;5.90;51.86
49825;BME280;35714;55.708;37.478;2023-03-14T09:52:52;98602.56;;;6.00;52.18
49825;BME280;35714;55.708;37.478;2023-03-14T09:55:22;98604.22;;;6.01;50.93
49825;BME280;35714;55.708;37.478;2023-03-14T09:57:56;98597.41;;;6.17;51.00
49825;BME280;35714;55.708;37.478;2023-03-14T10:00:27;98595.13;;;6.02;51.17
49825;BME280;35714;55.708;37.478;2023-03-14T10:05:42;98597.50;;;6.10;51.65
49825;BME280;35714;55.708;37.478;2023-03-14T10:08:12;98609.16;;;6.04;52.17
49825;BME280;35714;55.708;37.478;2023-03-14T10:10:38;98593.13;;;5.91;52.84
49825;BME280;35714;55.708;37.478;2023-03-14T10:15:39;98574.03;;;5.99;53.66
49825;BME280;35714;55.708;37.478;2023-03-14T10:18:11;98571.00;;;5.89;54.63
49825;BME280;35714;55.708;37.478;2023-03-14T10:25:43;98562.50;;;5.92;54.90
49825;BME280;35714;55.708;37.478;2023-03-14T10:28:26;98558.63;;;6.06;54.34
49825;BME280;35714;55.708;37.478;2023-03-14T10:30:53;98575.31;;;5.96;54.00
49825;BME280;35714;55.708;37.478;2023-03-14T10:33:28;98577.81;;;5.91;53.79
49825;BME280;35714;55.708;37.478;2023-03-14T10:38:26;98584.59;;;5.94;53.31
49825;BME280;35714;55.708;37.478;2023-03-14T10:40:53;98577.31;;;6.01;53.02
49825;BME280;35714;55.708;37.478;2023-03-14T10:43:23;98568.44;;;6.01;53.77
49825;BME280;35714;55.708;37.478;2023-03-14T10:46:08;98564.31;;;5.98;52.77
49825;BME280;35714;55.708;37.478;2023-03-14T10:48:54;98557.44;;;6.02;52.94
49825;BME280;35714;55.708;37.478;2023-03-14T10:51:26;98550.53;;;6.06;52.70
49825;BME280;35714;55.708;37.478;2023-03-14T10:56:59;98543.00;;;6.27;52.21
49825;BME280;35714;55.708;37.478;2023-03-14T10:59:29;98540.59;;;6.37;51.22
49825;BME280;35714;55.708;37.478;2023-03-14T11:07:40;98546.00;;;7.03;49.03
49825;BME280;35714;55.708;37.478;2023-03-14T11:31:46;98563.09;;;7.44;47.23
49825;BME280;35714;55.708;37.478;2023-03-14T11:34:25;98560.31;;;7.39;46.90
49825;BME280;35714;55.708;37.478;2023-03-14T11:36:59;98542.25;;;7.39;47.34
49825;BME280;35714;55.708;37.478;2023-03-14T11:39:38;98560.50;;;7.49;47.24
49825;BME280;35714;55.708;37.478;2023-03-14T11:42:07;98559.00;;;7.53;46.89
49825;BME280;35714;55.708;37.478;2023-03-14T11:44:38;98555.00;;;7.56;46.39
49825;BME280;35714;55.708;37.478;2023-03-14T11:47:32;98556.78;;;7.50;46.15
49825;BME280;35714;55.708;37.478;2023-03-14T11:49:58;98560.41;;;7.44;46.79
49825;BME280;35714;55.708;37.478;2023-03-14T11:52:41;98609.06;;;7.49;45.92
49825;BME280;35714;55.708;37.478;2023-03-14T11:55:32;98573.44;;;7.47;45.54
49825;BME280;35714;55.708;37.478;2023-03-14T11:58:02;98572.84;;;7.45;45.66
49825;BME280;35714;55.708;37.478;2023-03-14T12:00:29;98592.41;;;7.52;45.43
49825;BME280;35714;55.708;37.478;2023-03-14T12:13:16;98579.75;;;7.41;46.12
49825;BME280;35714;55.708;37.478;2023-03-14T12:15:57;98573.44;;;7.47;45.55
49825;BME280;35714;55.708;37.478;2023-03-14T12:18:35;98572.72;;;7.40;45.62
49825;BME280;35714;55.708;37.478;2023-03-14T12:21:09;98577.16;;;7.46;45.27
49825;BME280;35714;55.708;37.478;2023-03-14T12:23:53;98573.19;;;7.37;45.34
49825;BME280;35714;55.708;37.478;2023-03-14T12:42:35;98591.69;;;7.21;47.27
49825;BME280;35714;55.708;37.478;2023-03-14T12:47:50;98602.16;;;7.06;48.35
49825;BME280;35714;55.708;37.478;2023-03-14T12:50:25;98601.88;;;6.96;48.85
49825;BME280;35714;55.708;37.478;2023-03-14T12:56:01;98587.44;;;6.78;51.16
49825;BME280;35714;55.708;37.478;2023-03-14T13:00:59;98576.88;;;6.65;51.26
49825;BME280;35714;55.708;37.478;2023-03-14T13:03:37;98576.72;;;6.60;50.10
49825;BME280;35714;55.708;37.478;2023-03-14T13:06:05;98580.59;;;6.64;50.22
49825;BME280;35714;55.708;37.478;2023-03-14T13:11:05;98580.78;;;6.81;48.68
49825;BME280;35714;55.708;37.478;2023-03-14T13:13:34;98578.19;;;6.86;48.32
49825;BME280;35714;55.708;37.478;2023-03-14T13:16:01;98569.53;;;6.84;47.65
49825;BME280;35714;55.708;37.478;2023-03-14T13:18:34;98568.22;;;6.86;47.57
49825;BME280;35714;55.708;37.478;2023-03-14T13:21:21;98566.16;;;6.89;47.79
49825;BME280;35714;55.708;37.478;2023-03-14T13:24:26;98579.28;;;6.97;47.60
49825;BME280;35714;55.708;37.478;2023-03-14T13:26:53;98574.69;;;6.97;47.22
49825;BME280;35714;55.708;37.478;2023-03-14T13:31:49;98558.28;;;6.99;46.72
49825;BME280;35714;55.708;37.478;2023-03-14T13:34:15;98575.88;;;7.01;46.74
49825;BME280;35714;55.708;37.478;2023-03-14T13:36:42;98576.22;;;7.05;46.87
49825;BME280;35714;55.708;37.478;2023-03-14T13:39:14;98571.78;;;7.11;46.37
49825;BME280;35714;55.708;37.478;2023-03-14T13:41:42;98569.44;;;7.14;46.54
49825;BME280;35714;55.708;37.478;2023-03-14T13:44:14;98565.59;;;7.22;45.45
49825;BME280;35714;55.708;37.478;2023-03-14T13:46:41;98566.16;;;7.24;45.79
49825;BME280;35714;55.708;37.478;2023-03-14T13:49:10;98570.75;;;7.23;45.61
49825;BME280;35714;55.708;37.478;2023-03-14T13:51:39;98566.84;;;7.19;45.52
49825;BME280;35714;55.708;37.478;2023-03-14T13:54:13;98567.19;;;7.23;45.57
49825;BME280;35714;55.708;37.478;2023-03-14T13:56:40;98562.88;;;7.34;44.54
49825;BME280;35714;55.708;37.478;2023-03-14T13:59:30;98565.47;;;7.29;45.38
49825;BME280;35714;55.708;37.478;2023-03-14T14:01:58;98569.78;;;7.18;45.47
49825;BME280;35714;55.708;37.478;2023-03-14T14:04:25;98579.75;;;7.17;45.25
49825;BME280;35714;55.708;37.478;2023-03-14T14:06:57;98588.53;;;7.25;45.17
49825;BME280;35714;55.708;37.478;2023-03-14T14:09:36;98577.19;;;7.22;45.65
49825;BME280;35714;55.708;37.478;2023-03-14T14:12:12;98575.06;;;7.25;45.07
49825;BME280;35714;55.708;37.478;2023-03-14T14:14:52;98572.50;;;7.30;44.66
49825;BME280;35714;55.708;37.478;2023-03-14T14:17:22;98582.44;;;7.29;45.25
49825;BME280;35714;55.708;37.478;2023-03-14T14:19:50;98595.00;;;7.23;44.92
49825;BME280;35714;55.708;37.478;2023-03-14T14:22:17;98593.47;;;7.28;44.81
49825;BME280;35714;55.708;37.478;2023-03-14T14:24:43;98598.38;;;7.31;44.92
49825;BME280;35714;55.708;37.478;2023-03-14T14:27:23;98593.47;;;7.28;44.80
49825;BME280;35714;55.708;37.478;2023-03-14T14:30:03;98590.75;;;7.28;44.44
49825;BME280;35714;55.708;37.478;2023-03-14T14:32:37;98591.69;;;7.21;44.53
49825;BME280;35714;55.708;37.478;2023-03-14T14:35:04;98583.88;;;7.20;44.31
49825;BME280;35714;55.708;37.478;2023-03-14T14:37:33;98599.09;;;7.14;44.86
49825;BME280;35714;55.708;37.478;2023-03-14T14:40:06;98612.00;;;7.24;44.54
49825;BME280;35714;55.708;37.478;2023-03-14T14:42:33;98600.28;;;7.18;44.54